sensor_id;sensor_type;location;lat;lon;timestamp;P1;durP1;ratioP1;P2;durP2;ratioP2
54235;SDS011;40151;43.606;1.472;2023-09-07T00:01:18;3.90;;;1.98;;
54235;SDS011;40151;43.606;1.472;2023-09-07T00:03:44;3.40;;;2.20;;
54235;SDS011;40151;43.606;1.472;2023-09-07T00:06:10;4.43;;;2.40;;
54235;SDS011;40151;43.606;1.472;2023-09-07T00:08:35;4.95;;;2.50;;
54235;SDS011;40151;43.606;1.472;2023-09-07T00:11:04;3.70;;;2.15;;
54235;SDS011;40151;43.606;1.472;2023-09-07T00:13:30;3.20;;;2.10;;
54235;SDS011;40151;43.606;1.472;2023-09-07T00:15:59;3.75;;;2.38;;
54235;SDS011;40151;43.606;1.472;2023-09-07T00:18:26;4.35;;;2.40;;
54235;SDS011;40151;43.606;1.472;2023-09-07T00:20:52;3.88;;;2.45;;
54235;SDS011;40151;43.606;1.472;2023-09-07T00:23:17;4.13;;;2.60;;
54235;SDS011;40151;43.606;1.472;2023-09-07T00:25:44;4.40;;;2.42;;
54235;SDS011;40151;43.606;1.472;2023-09-07T00:28:10;3.50;;;2.25;;
54235;SDS011;40151;43.606;1.472;2023-09-07T00:30:35;3.90;;;2.30;;
54235;SDS011;40151;43.606;1.472;2023-09-07T00:33:01;4.15;;;2.33;;
54235;SDS011;40151;43.606;1.472;2023-09-07T00:35:26;3.40;;;2.20;;
54235;SDS011;40151;43.606;1.472;2023-09-07T00:37:52;3.45;;;2.40;;
54235;SDS011;40151;43.606;1.472;2023-09-07T00:40:17;4.70;;;2.60;;
54235;SDS011;40151;43.606;1.472;2023-09-07T00:42:42;3.22;;;2.28;;
54235;SDS011;40151;43.606;1.472;2023-09-07T00:45:08;3.55;;;2.08;;
54235;SDS011;40151;43.606;1.472;2023-09-07T00:47:34;4.63;;;2.17;;
54235;SDS011;40151;43.606;1.472;2023-09-07T00:50:03;3.78;;;2.33;;
54235;SDS011;40151;43.606;1.472;2023-09-07T00:52:29;3.50;;;1.95;;
54235;SDS011;40151;43.606;1.472;2023-09-07T00:54:56;4.03;;;2.38;;
54235;SDS011;40151;43.606;1.472;2023-09-07T00:57:21;3.85;;;2.55;;
54235;SDS011;40151;43.606;1.472;2023-09-07T00:59:47;3.60;;;2.20;;
54235;SDS011;40151;43.606;1.472;2023-09-07T01:02:12;2.97;;;1.90;;
54235;SDS011;40151;43.606;1.472;2023-09-07T01:04:38;4.63;;;2.45;;
54235;SDS011;40151;43.606;1.472;2023-09-07T01:07:14;4.43;;;2.38;;
54235;SDS011;40151;43.606;1.472;2023-09-07T01:09:49;4.55;;;2.25;;
54235;SDS011;40151;43.606;1.472;2023-09-07T01:12:19;3.47;;;2.08;;
54235;SDS011;40151;43.606;1.472;2023-09-07T01:14:45;3.08;;;2.00;;
54235;SDS011;40151;43.606;1.472;2023-09-07T01:17:11;3.38;;;2.17;;
54235;SDS011;40151;43.606;1.472;2023-09-07T01:19:38;3.38;;;2.20;;
54235;SDS011;40151;43.606;1.472;2023-09-07T01:22:04;2.97;;;1.95;;
54235;SDS011;40151;43.606;1.472;2023-09-07T01:24:31;4.10;;;2.50;;
54235;SDS011;40151;43.606;1.472;2023-09-07T01:27:00;3.65;;;2.50;;
54235;SDS011;40151;43.606;1.472;2023-09-07T01:29:28;4.43;;;2.50;;
54235;SDS011;40151;43.606;1.472;2023-09-07T01:31:54;4.13;;;2.40;;
54235;SDS011;40151;43.606;1.472;2023-09-07T01:34:20;3.80;;;2.38;;
54235;SDS011;40151;43.606;1.472;2023-09-07T01:36:45;3.65;;;2.40;;
54235;SDS011;40151;43.606;1.472;2023-09-07T01:39:10;4.55;;;2.53;;
54235;SDS011;40151;43.606;1.472;2023-09-07T01:41:36;3.60;;;2.25;;
54235;SDS011;40151;43.606;1.472;2023-09-07T01:44:01;3.65;;;2.38;;
54235;SDS011;40151;43.606;1.472;2023-09-07T01:46:27;4.03;;;2.42;;
54235;SDS011;40151;43.606;1.472;2023-09-07T01:48:52;3.92;;;2.20;;
54235;SDS011;40151;43.606;1.472;2023-09-07T01:51:18;4.65;;;2.80;;
54235;SDS011;40151;43.606;1.472;2023-09-07T01:53:43;3.38;;;2.30;;
54235;SDS011;40151;43.606;1.472;2023-09-07T01:56:11;4.20;;;2.70;;
54235;SDS011;40151;43.606;1.472;2023-09-07T01:58:37;3.75;;;2.58;;
54235;SDS011;40151;43.606;1.472;2023-09-07T02:01:02;3.45;;;2.35;;
54235;SDS011;40151;43.606;1.472;2023-09-07T02:03:28;4.22;;;2.63;;
54235;SDS011;40151;43.606;1.472;2023-09-07T02:05:54;4.60;;;2.80;;
54235;SDS011;40151;43.606;1.472;2023-09-07T02:08:19;3.65;;;2.40;;
54235;SDS011;40151;43.606;1.472;2023-09-07T02:10:45;4.40;;;2.80;;
54235;SDS011;40151;43.606;1.472;2023-09-07T02:13:10;3.90;;;2.30;;
54235;SDS011;40151;43.606;1.472;2023-09-07T02:15:37;4.40;;;2.65;;
54235;SDS011;40151;43.606;1.472;2023-09-07T02:18:05;4.22;;;2.65;;
54235;SDS011;40151;43.606;1.472;2023-09-07T02:20:31;5.70;;;2.88;;
54235;SDS011;40151;43.606;1.472;2023-09-07T02:22:58;4.28;;;2.47;;
54235;SDS011;40151;43.606;1.472;2023-09-07T02:25:23;4.47;;;2.83;;
54235;SDS011;40151;43.606;1.472;2023-09-07T02:27:49;4.20;;;2.50;;
54235;SDS011;40151;43.606;1.472;2023-09-07T02:30:14;4.40;;;2.90;;
54235;SDS011;40151;43.606;1.472;2023-09-07T02:32:41;3.72;;;2.60;;
54235;SDS011;40151;43.606;1.472;2023-09-07T02:35:07;4.82;;;2.65;;
54235;SDS011;40151;43.606;1.472;2023-09-07T02:37:33;4.22;;;2.90;;
54235;SDS011;40151;43.606;1.472;2023-09-07T02:40:00;3.65;;;2.45;;
54235;SDS011;40151;43.606;1.472;2023-09-07T02:42:25;3.90;;;2.65;;
54235;SDS011;40151;43.606;1.472;2023-09-07T02:44:51;4.07;;;2.88;;
54235;SDS011;40151;43.606;1.472;2023-09-07T02:47:16;4.00;;;2.90;;
54235;SDS011;40151;43.606;1.472;2023-09-07T02:49:42;3.95;;;2.60;;
54235;SDS011;40151;43.606;1.472;2023-09-07T02:52:07;4.20;;;2.72;;
54235;SDS011;40151;43.606;1.472;2023-09-07T02:54:33;4.25;;;2.40;;
54235;SDS011;40151;43.606;1.472;2023-09-07T02:56:58;4.00;;;2.92;;
54235;SDS011;40151;43.606;1.472;2023-09-07T02:59:23;4.20;;;2.88;;
54235;SDS011;40151;43.606;1.472;2023-09-07T03:01:49;4.28;;;2.53;;
54235;SDS011;40151;43.606;1.472;2023-09-07T03:04:14;4.18;;;2.70;;
54235;SDS011;40151;43.606;1.472;2023-09-07T03:06:39;4.65;;;2.80;;
54235;SDS011;40151;43.606;1.472;2023-09-07T03:09:05;4.47;;;2.85;;
54235;SDS011;40151;43.606;1.472;2023-09-07T03:11:34;4.80;;;2.95;;
54235;SDS011;40151;43.606;1.472;2023-09-07T03:14:00;4.13;;;2.83;;
54235;SDS011;40151;43.606;1.472;2023-09-07T03:16:25;4.30;;;2.75;;
54235;SDS011;40151;43.606;1.472;2023-09-07T03:18:51;3.88;;;2.70;;
54235;SDS011;40151;43.606;1.472;2023-09-07T03:21:17;5.43;;;2.92;;
54235;SDS011;40151;43.606;1.472;2023-09-07T03:23:42;4.68;;;2.70;;
54235;SDS011;40151;43.606;1.472;2023-09-07T03:26:09;4.72;;;3.00;;
54235;SDS011;40151;43.606;1.472;2023-09-07T03:28:35;4.22;;;2.65;;
54235;SDS011;40151;43.606;1.472;2023-09-07T03:31:01;4.63;;;3.08;;
54235;SDS011;40151;43.606;1.472;2023-09-07T03:33:27;4.70;;;2.78;;
54235;SDS011;40151;43.606;1.472;2023-09-07T03:35:52;4.35;;;2.85;;
54235;SDS011;40151;43.606;1.472;2023-09-07T03:38:18;4.13;;;2.63;;
54235;SDS011;40151;43.606;1.472;2023-09-07T03:40:43;4.32;;;2.85;;
54235;SDS011;40151;43.606;1.472;2023-09-07T03:43:09;4.18;;;2.88;;
54235;SDS011;40151;43.606;1.472;2023-09-07T03:45:34;4.78;;;2.90;;
54235;SDS011;40151;43.606;1.472;2023-09-07T03:48:00;4.57;;;2.65;;
54235;SDS011;40151;43.606;1.472;2023-09-07T03:50:25;4.38;;;2.60;;
54235;SDS011;40151;43.606;1.472;2023-09-07T03:52:51;4.45;;;3.05;;
54235;SDS011;40151;43.606;1.472;2023-09-07T03:55:16;4.18;;;2.75;;
54235;SDS011;40151;43.606;1.472;2023-09-07T03:57:42;3.80;;;2.65;;
54235;SDS011;40151;43.606;1.472;2023-09-07T04:00:07;4.63;;;2.90;;
54235;SDS011;40151;43.606;1.472;2023-09-07T04:02:33;3.97;;;2.80;;
54235;SDS011;40151;43.606;1.472;2023-09-07T04:04:59;4.15;;;2.90;;
54235;SDS011;40151;43.606;1.472;2023-09-07T04:07:27;5.50;;;2.80;;
54235;SDS011;40151;43.606;1.472;2023-09-07T04:09:52;4.20;;;2.75;;
54235;SDS011;40151;43.606;1.472;2023-09-07T04:12:18;4.50;;;2.88;;
54235;SDS011;40151;43.606;1.472;2023-09-07T04:14:43;3.90;;;2.92;;
54235;SDS011;40151;43.606;1.472;2023-09-07T04:17:09;4.28;;;2.72;;
54235;SDS011;40151;43.606;1.472;2023-09-07T04:19:35;4.85;;;3.10;;
54235;SDS011;40151;43.606;1.472;2023-09-07T04:22:01;3.65;;;2.60;;
54235;SDS011;40151;43.606;1.472;2023-09-07T04:24:26;4.35;;;2.72;;
54235;SDS011;40151;43.606;1.472;2023-09-07T04:26:58;4.82;;;2.83;;
54235;SDS011;40151;43.606;1.472;2023-09-07T04:29:25;4.30;;;2.83;;
54235;SDS011;40151;43.606;1.472;2023-09-07T04:31:51;4.28;;;2.72;;
54235;SDS011;40151;43.606;1.472;2023-09-07T04:34:17;4.38;;;3.05;;
54235;SDS011;40151;43.606;1.472;2023-09-07T04:36:42;4.10;;;2.78;;
54235;SDS011;40151;43.606;1.472;2023-09-07T04:39:08;3.85;;;2.78;;
54235;SDS011;40151;43.606;1.472;2023-09-07T04:41:33;5.00;;;3.03;;
54235;SDS011;40151;43.606;1.472;2023-09-07T04:43:58;5.15;;;2.92;;
54235;SDS011;40151;43.606;1.472;2023-09-07T04:46:24;4.50;;;2.97;;
54235;SDS011;40151;43.606;1.472;2023-09-07T04:48:49;4.68;;;2.90;;
54235;SDS011;40151;43.606;1.472;2023-09-07T04:51:15;5.07;;;3.30;;
54235;SDS011;40151;43.606;1.472;2023-09-07T04:53:40;4.78;;;3.00;;
54235;SDS011;40151;43.606;1.472;2023-09-07T04:56:06;5.95;;;3.35;;
54235;SDS011;40151;43.606;1.472;2023-09-07T04:58:33;4.05;;;3.00;;
54235;SDS011;40151;43.606;1.472;2023-09-07T05:01:06;4.53;;;2.97;;
54235;SDS011;40151;43.606;1.472;2023-09-07T05:03:33;4.57;;;2.97;;
54235;SDS011;40151;43.606;1.472;2023-09-07T05:06:00;4.40;;;2.80;;
54235;SDS011;40151;43.606;1.472;2023-09-07T05:08:25;4.30;;;2.90;;
54235;SDS011;40151;43.606;1.472;2023-09-07T05:10:55;4.95;;;3.00;;
54235;SDS011;40151;43.606;1.472;2023-09-07T05:13:21;4.72;;;3.08;;
54235;SDS011;40151;43.606;1.472;2023-09-07T05:15:50;4.60;;;3.17;;
54235;SDS011;40151;43.606;1.472;2023-09-07T05:18:17;5.05;;;3.35;;
54235;SDS011;40151;43.606;1.472;2023-09-07T05:20:43;6.50;;;2.80;;
54235;SDS011;40151;43.606;1.472;2023-09-07T05:23:18;4.38;;;3.03;;
54235;SDS011;40151;43.606;1.472;2023-09-07T05:28:12;3.60;;;2.58;;
54235;SDS011;40151;43.606;1.472;2023-09-07T05:30:38;5.50;;;3.05;;
54235;SDS011;40151;43.606;1.472;2023-09-07T05:33:04;4.35;;;2.80;;
54235;SDS011;40151;43.606;1.472;2023-09-07T05:35:29;4.00;;;2.92;;
54235;SDS011;40151;43.606;1.472;2023-09-07T05:37:57;4.68;;;2.95;;
54235;SDS011;40151;43.606;1.472;2023-09-07T05:40:23;5.00;;;3.17;;
54235;SDS011;40151;43.606;1.472;2023-09-07T05:42:48;4.78;;;3.03;;
54235;SDS011;40151;43.606;1.472;2023-09-07T05:45:13;4.63;;;2.83;;
54235;SDS011;40151;43.606;1.472;2023-09-07T05:47:39;4.28;;;2.90;;
54235;SDS011;40151;43.606;1.472;2023-09-07T05:50:04;4.90;;;2.90;;
54235;SDS011;40151;43.606;1.472;2023-09-07T05:52:30;4.45;;;2.50;;
54235;SDS011;40151;43.606;1.472;2023-09-07T05:54:55;3.53;;;2.42;;
54235;SDS011;40151;43.606;1.472;2023-09-07T05:57:21;5.15;;;2.85;;
54235;SDS011;40151;43.606;1.472;2023-09-07T05:59:46;4.18;;;2.65;;
54235;SDS011;40151;43.606;1.472;2023-09-07T06:02:11;4.07;;;2.80;;
54235;SDS011;40151;43.606;1.472;2023-09-07T06:04:37;4.22;;;2.97;;
54235;SDS011;40151;43.606;1.472;2023-09-07T06:07:02;4.15;;;2.55;;
54235;SDS011;40151;43.606;1.472;2023-09-07T06:09:28;4.85;;;2.75;;
54235;SDS011;40151;43.606;1.472;2023-09-07T06:11:54;4.43;;;2.78;;
54235;SDS011;40151;43.606;1.472;2023-09-07T06:14:19;4.03;;;2.90;;
54235;SDS011;40151;43.606;1.472;2023-09-07T06:16:45;4.55;;;2.78;;
54235;SDS011;40151;43.606;1.472;2023-09-07T06:19:10;3.70;;;2.58;;
54235;SDS011;40151;43.606;1.472;2023-09-07T06:21:36;4.03;;;2.53;;
54235;SDS011;40151;43.606;1.472;2023-09-07T06:24:01;4.45;;;2.75;;
54235;SDS011;40151;43.606;1.472;2023-09-07T06:26:26;4.25;;;2.45;;
54235;SDS011;40151;43.606;1.472;2023-09-07T06:28:52;3.78;;;2.33;;
54235;SDS011;40151;43.606;1.472;2023-09-07T06:31:17;4.00;;;2.65;;
54235;SDS011;40151;43.606;1.472;2023-09-07T06:33:42;4.35;;;3.00;;
54235;SDS011;40151;43.606;1.472;2023-09-07T06:36:08;4.93;;;2.30;;
54235;SDS011;40151;43.606;1.472;2023-09-07T06:38:33;3.83;;;2.78;;
54235;SDS011;40151;43.606;1.472;2023-09-07T06:40:59;4.20;;;2.70;;
54235;SDS011;40151;43.606;1.472;2023-09-07T06:43:24;4.88;;;2.72;;
54235;SDS011;40151;43.606;1.472;2023-09-07T06:45:49;4.22;;;2.63;;
54235;SDS011;40151;43.606;1.472;2023-09-07T06:48:15;4.00;;;2.72;;
54235;SDS011;40151;43.606;1.472;2023-09-07T06:50:40;3.72;;;2.47;;
54235;SDS011;40151;43.606;1.472;2023-09-07T06:53:06;6.00;;;2.63;;
54235;SDS011;40151;43.606;1.472;2023-09-07T06:55:31;4.03;;;2.38;;
54235;SDS011;40151;43.606;1.472;2023-09-07T06:57:56;3.83;;;2.67;;
54235;SDS011;40151;43.606;1.472;2023-09-07T07:00:22;4.15;;;2.70;;
54235;SDS011;40151;43.606;1.472;2023-09-07T07:02:47;4.22;;;2.72;;
54235;SDS011;40151;43.606;1.472;2023-09-07T07:05:13;4.30;;;2.55;;
54235;SDS011;40151;43.606;1.472;2023-09-07T07:07:38;4.63;;;2.80;;
54235;SDS011;40151;43.606;1.472;2023-09-07T07:10:05;3.88;;;2.50;;
54235;SDS011;40151;43.606;1.472;2023-09-07T07:12:31;4.10;;;2.53;;
54235;SDS011;40151;43.606;1.472;2023-09-07T07:14:59;5.32;;;2.97;;
54235;SDS011;40151;43.606;1.472;2023-09-07T07:17:25;3.97;;;2.55;;
54235;SDS011;40151;43.606;1.472;2023-09-07T07:19:50;3.47;;;2.40;;
54235;SDS011;40151;43.606;1.472;2023-09-07T07:22:16;4.25;;;2.70;;
54235;SDS011;40151;43.606;1.472;2023-09-07T07:24:41;4.85;;;2.67;;
54235;SDS011;40151;43.606;1.472;2023-09-07T07:27:08;4.65;;;2.40;;
54235;SDS011;40151;43.606;1.472;2023-09-07T07:29:33;4.65;;;2.60;;
54235;SDS011;40151;43.606;1.472;2023-09-07T07:31:59;4.20;;;2.80;;
54235;SDS011;40151;43.606;1.472;2023-09-07T07:34:24;4.82;;;2.72;;
54235;SDS011;40151;43.606;1.472;2023-09-07T07:36:49;4.05;;;2.60;;
54235;SDS011;40151;43.606;1.472;2023-09-07T07:39:15;4.07;;;2.28;;
54235;SDS011;40151;43.606;1.472;2023-09-07T07:41:40;4.78;;;2.80;;
54235;SDS011;40151;43.606;1.472;2023-09-07T07:44:06;3.50;;;2.03;;
54235;SDS011;40151;43.606;1.472;2023-09-07T07:46:31;4.00;;;2.47;;
54235;SDS011;40151;43.606;1.472;2023-09-07T07:48:57;3.95;;;2.35;;
54235;SDS011;40151;43.606;1.472;2023-09-07T07:51:22;4.15;;;2.28;;
54235;SDS011;40151;43.606;1.472;2023-09-07T07:53:48;5.97;;;2.30;;
54235;SDS011;40151;43.606;1.472;2023-09-07T07:56:16;4.25;;;1.88;;
54235;SDS011;40151;43.606;1.472;2023-09-07T07:58:42;4.32;;;2.38;;
54235;SDS011;40151;43.606;1.472;2023-09-07T08:01:15;3.47;;;2.30;;
54235;SDS011;40151;43.606;1.472;2023-09-07T08:03:41;3.83;;;2.20;;
54235;SDS011;40151;43.606;1.472;2023-09-07T08:06:08;4.22;;;2.40;;
54235;SDS011;40151;43.606;1.472;2023-09-07T08:08:33;3.42;;;2.15;;
54235;SDS011;40151;43.606;1.472;2023-09-07T08:10:59;4.20;;;2.50;;
54235;SDS011;40151;43.606;1.472;2023-09-07T08:13:29;3.80;;;2.30;;
54235;SDS011;40151;43.606;1.472;2023-09-07T08:15:55;3.65;;;2.38;;
54235;SDS011;40151;43.606;1.472;2023-09-07T08:18:20;4.70;;;2.70;;
54235;SDS011;40151;43.606;1.472;2023-09-07T08:20:46;4.70;;;2.45;;
54235;SDS011;40151;43.606;1.472;2023-09-07T08:23:11;3.78;;;2.15;;
54235;SDS011;40151;43.606;1.472;2023-09-07T08:25:36;3.92;;;2.28;;
54235;SDS011;40151;43.606;1.472;2023-09-07T08:28:04;3.35;;;2.30;;
54235;SDS011;40151;43.606;1.472;2023-09-07T08:30:30;3.60;;;2.17;;
54235;SDS011;40151;43.606;1.472;2023-09-07T08:32:56;4.13;;;2.72;;
54235;SDS011;40151;43.606;1.472;2023-09-07T08:35:21;4.65;;;2.20;;
54235;SDS011;40151;43.606;1.472;2023-09-07T08:37:52;3.22;;;2.10;;
54235;SDS011;40151;43.606;1.472;2023-09-07T08:40:17;3.13;;;2.03;;
54235;SDS011;40151;43.606;1.472;2023-09-07T08:42:43;3.55;;;2.10;;
54235;SDS011;40151;43.606;1.472;2023-09-07T08:45:09;4.03;;;2.08;;
54235;SDS011;40151;43.606;1.472;2023-09-07T08:47:40;3.75;;;2.35;;
54235;SDS011;40151;43.606;1.472;2023-09-07T08:50:07;3.42;;;2.00;;
54235;SDS011;40151;43.606;1.472;2023-09-07T08:52:34;2.95;;;1.85;;
54235;SDS011;40151;43.606;1.472;2023-09-07T08:55:00;3.65;;;2.40;;
54235;SDS011;40151;43.606;1.472;2023-09-07T08:57:29;3.25;;;1.98;;
54235;SDS011;40151;43.606;1.472;2023-09-07T08:59:56;4.00;;;2.28;;
54235;SDS011;40151;43.606;1.472;2023-09-07T09:02:21;3.05;;;1.88;;
54235;SDS011;40151;43.606;1.472;2023-09-07T09:04:47;3.95;;;2.47;;
54235;SDS011;40151;43.606;1.472;2023-09-07T09:07:12;5.00;;;2.00;;
54235;SDS011;40151;43.606;1.472;2023-09-07T09:09:38;3.17;;;2.10;;
54235;SDS011;40151;43.606;1.472;2023-09-07T09:12:10;3.92;;;2.10;;
54235;SDS011;40151;43.606;1.472;2023-09-07T09:14:36;3.25;;;2.28;;
54235;SDS011;40151;43.606;1.472;2023-09-07T09:17:02;3.53;;;2.30;;
54235;SDS011;40151;43.606;1.472;2023-09-07T09:19:31;3.40;;;2.00;;
54235;SDS011;40151;43.606;1.472;2023-09-07T09:21:57;3.88;;;1.95;;
54235;SDS011;40151;43.606;1.472;2023-09-07T09:24:23;3.20;;;1.80;;
54235;SDS011;40151;43.606;1.472;2023-09-07T09:26:48;3.50;;;1.92;;
54235;SDS011;40151;43.606;1.472;2023-09-07T09:29:14;3.55;;;2.00;;
54235;SDS011;40151;43.606;1.472;2023-09-07T09:31:40;3.50;;;1.90;;
54235;SDS011;40151;43.606;1.472;2023-09-07T09:34:06;3.85;;;2.08;;
54235;SDS011;40151;43.606;1.472;2023-09-07T09:36:35;3.50;;;2.17;;
54235;SDS011;40151;43.606;1.472;2023-09-07T09:39:01;2.97;;;2.17;;
54235;SDS011;40151;43.606;1.472;2023-09-07T09:41:29;3.42;;;2.08;;
54235;SDS011;40151;43.606;1.472;2023-09-07T09:43:57;4.18;;;2.30;;
54235;SDS011;40151;43.606;1.472;2023-09-07T09:46:23;4.60;;;2.33;;
54235;SDS011;40151;43.606;1.472;2023-09-07T09:48:50;4.32;;;2.00;;
54235;SDS011;40151;43.606;1.472;2023-09-07T09:51:17;3.85;;;2.00;;
54235;SDS011;40151;43.606;1.472;2023-09-07T09:53:43;3.47;;;2.10;;
54235;SDS011;40151;43.606;1.472;2023-09-07T09:56:09;3.38;;;2.00;;
54235;SDS011;40151;43.606;1.472;2023-09-07T09:58:35;3.42;;;2.00;;
54235;SDS011;40151;43.606;1.472;2023-09-07T10:01:00;3.30;;;2.15;;
54235;SDS011;40151;43.606;1.472;2023-09-07T10:03:37;4.97;;;2.20;;
54235;SDS011;40151;43.606;1.472;2023-09-07T10:06:11;3.63;;;2.38;;
54235;SDS011;40151;43.606;1.472;2023-09-07T10:08:50;4.38;;;2.13;;
54235;SDS011;40151;43.606;1.472;2023-09-07T10:11:26;4.57;;;2.50;;
54235;SDS011;40151;43.606;1.472;2023-09-07T10:13:58;4.82;;;2.65;;
54235;SDS011;40151;43.606;1.472;2023-09-07T10:19:18;3.60;;;2.10;;
54235;SDS011;40151;43.606;1.472;2023-09-07T10:21:45;3.83;;;2.13;;
54235;SDS011;40151;43.606;1.472;2023-09-07T10:24:11;3.80;;;2.42;;
54235;SDS011;40151;43.606;1.472;2023-09-07T10:26:55;4.60;;;2.08;;
54235;SDS011;40151;43.606;1.472;2023-09-07T10:29:26;4.22;;;2.60;;
54235;SDS011;40151;43.606;1.472;2023-09-07T10:31:52;4.45;;;2.03;;
54235;SDS011;40151;43.606;1.472;2023-09-07T10:34:18;5.07;;;2.28;;
54235;SDS011;40151;43.606;1.472;2023-09-07T10:36:43;3.58;;;2.28;;
54235;SDS011;40151;43.606;1.472;2023-09-07T10:39:09;3.83;;;2.30;;
54235;SDS011;40151;43.606;1.472;2023-09-07T10:41:41;5.57;;;2.30;;
54235;SDS011;40151;43.606;1.472;2023-09-07T10:44:08;3.75;;;2.28;;
54235;SDS011;40151;43.606;1.472;2023-09-07T10:46:35;5.25;;;2.30;;
54235;SDS011;40151;43.606;1.472;2023-09-07T10:49:02;3.53;;;2.30;;
54235;SDS011;40151;43.606;1.472;2023-09-07T10:51:28;4.78;;;2.40;;
54235;SDS011;40151;43.606;1.472;2023-09-07T10:53:54;4.20;;;1.95;;
54235;SDS011;40151;43.606;1.472;2023-09-07T10:56:20;3.97;;;2.20;;
54235;SDS011;40151;43.606;1.472;2023-09-07T10:58:50;4.85;;;2.60;;
54235;SDS011;40151;43.606;1.472;2023-09-07T11:01:19;3.95;;;2.38;;
54235;SDS011;40151;43.606;1.472;2023-09-07T11:03:45;4.72;;;2.08;;
54235;SDS011;40151;43.606;1.472;2023-09-07T11:06:12;4.35;;;2.20;;
54235;SDS011;40151;43.606;1.472;2023-09-07T11:08:45;4.70;;;2.42;;
54235;SDS011;40151;43.606;1.472;2023-09-07T11:11:11;3.80;;;2.42;;
54235;SDS011;40151;43.606;1.472;2023-09-07T11:13:38;5.05;;;2.47;;
54235;SDS011;40151;43.606;1.472;2023-09-07T11:16:06;3.58;;;2.00;;
54235;SDS011;40151;43.606;1.472;2023-09-07T11:18:33;5.25;;;2.40;;
54235;SDS011;40151;43.606;1.472;2023-09-07T11:21:00;4.03;;;2.33;;
54235;SDS011;40151;43.606;1.472;2023-09-07T11:23:29;4.18;;;2.30;;
54235;SDS011;40151;43.606;1.472;2023-09-07T11:26:03;4.15;;;2.20;;
54235;SDS011;40151;43.606;1.472;2023-09-07T11:28:37;5.43;;;2.33;;
54235;SDS011;40151;43.606;1.472;2023-09-07T11:31:03;4.15;;;2.53;;
54235;SDS011;40151;43.606;1.472;2023-09-07T11:33:31;4.60;;;2.50;;
54235;SDS011;40151;43.606;1.472;2023-09-07T11:35:57;4.30;;;2.20;;
54235;SDS011;40151;43.606;1.472;2023-09-07T11:38:23;4.20;;;2.38;;
54235;SDS011;40151;43.606;1.472;2023-09-07T11:40:48;3.88;;;2.50;;
54235;SDS011;40151;43.606;1.472;2023-09-07T11:43:14;4.63;;;2.70;;
54235;SDS011;40151;43.606;1.472;2023-09-07T11:45:41;4.38;;;2.08;;
54235;SDS011;40151;43.606;1.472;2023-09-07T11:48:07;5.57;;;2.40;;
54235;SDS011;40151;43.606;1.472;2023-09-07T11:50:36;3.50;;;2.22;;
54235;SDS011;40151;43.606;1.472;2023-09-07T11:53:03;5.78;;;2.40;;
54235;SDS011;40151;43.606;1.472;2023-09-07T11:55:29;3.97;;;2.33;;
54235;SDS011;40151;43.606;1.472;2023-09-07T11:57:54;4.85;;;2.35;;
54235;SDS011;40151;43.606;1.472;2023-09-07T12:00:20;5.43;;;2.65;;
54235;SDS011;40151;43.606;1.472;2023-09-07T12:02:47;4.25;;;2.30;;
54235;SDS011;40151;43.606;1.472;2023-09-07T12:05:13;4.80;;;2.30;;
54235;SDS011;40151;43.606;1.472;2023-09-07T12:07:40;3.42;;;2.33;;
54235;SDS011;40151;43.606;1.472;2023-09-07T12:10:10;4.30;;;2.25;;
54235;SDS011;40151;43.606;1.472;2023-09-07T12:12:39;4.13;;;2.38;;
54235;SDS011;40151;43.606;1.472;2023-09-07T12:15:05;5.05;;;2.67;;
54235;SDS011;40151;43.606;1.472;2023-09-07T12:17:31;4.35;;;2.30;;
54235;SDS011;40151;43.606;1.472;2023-09-07T12:19:58;4.53;;;2.60;;
54235;SDS011;40151;43.606;1.472;2023-09-07T12:22:24;3.88;;;2.33;;
54235;SDS011;40151;43.606;1.472;2023-09-07T12:24:50;5.30;;;2.80;;
54235;SDS011;40151;43.606;1.472;2023-09-07T12:27:15;4.80;;;2.22;;
54235;SDS011;40151;43.606;1.472;2023-09-07T12:29:41;5.13;;;2.58;;
54235;SDS011;40151;43.606;1.472;2023-09-07T12:32:07;6.07;;;2.60;;
54235;SDS011;40151;43.606;1.472;2023-09-07T12:34:32;7.82;;;2.70;;
54235;SDS011;40151;43.606;1.472;2023-09-07T12:36:58;5.47;;;2.10;;
54235;SDS011;40151;43.606;1.472;2023-09-07T12:39:23;5.13;;;2.40;;
54235;SDS011;40151;43.606;1.472;2023-09-07T12:41:49;5.68;;;2.60;;
54235;SDS011;40151;43.606;1.472;2023-09-07T12:44:14;7.38;;;2.65;;
54235;SDS011;40151;43.606;1.472;2023-09-07T12:46:39;5.55;;;2.50;;
54235;SDS011;40151;43.606;1.472;2023-09-07T12:49:05;7.03;;;2.60;;
54235;SDS011;40151;43.606;1.472;2023-09-07T12:51:31;5.47;;;2.33;;
54235;SDS011;40151;43.606;1.472;2023-09-07T12:53:56;4.55;;;2.60;;
54235;SDS011;40151;43.606;1.472;2023-09-07T12:56:22;4.45;;;2.47;;
54235;SDS011;40151;43.606;1.472;2023-09-07T12:58:47;4.78;;;2.22;;
54235;SDS011;40151;43.606;1.472;2023-09-07T13:01:14;5.20;;;2.83;;
54235;SDS011;40151;43.606;1.472;2023-09-07T13:03:41;4.18;;;2.22;;
54235;SDS011;40151;43.606;1.472;2023-09-07T13:06:06;4.97;;;2.67;;
54235;SDS011;40151;43.606;1.472;2023-09-07T13:08:32;4.85;;;2.78;;
54235;SDS011;40151;43.606;1.472;2023-09-07T13:10:58;5.30;;;2.65;;
54235;SDS011;40151;43.606;1.472;2023-09-07T13:13:23;8.18;;;2.55;;
54235;SDS011;40151;43.606;1.472;2023-09-07T13:15:56;5.53;;;2.35;;
54235;SDS011;40151;43.606;1.472;2023-09-07T13:18:22;5.50;;;2.90;;
54235;SDS011;40151;43.606;1.472;2023-09-07T13:20:48;4.45;;;2.38;;
54235;SDS011;40151;43.606;1.472;2023-09-07T13:23:15;4.55;;;2.60;;
54235;SDS011;40151;43.606;1.472;2023-09-07T13:25:41;6.50;;;2.60;;
54235;SDS011;40151;43.606;1.472;2023-09-07T13:28:06;4.28;;;2.40;;
54235;SDS011;40151;43.606;1.472;2023-09-07T13:30:32;5.07;;;2.67;;
54235;SDS011;40151;43.606;1.472;2023-09-07T13:32:57;5.60;;;2.60;;
54235;SDS011;40151;43.606;1.472;2023-09-07T13:35:22;5.18;;;2.42;;
54235;SDS011;40151;43.606;1.472;2023-09-07T13:37:48;5.65;;;2.60;;
54235;SDS011;40151;43.606;1.472;2023-09-07T13:40:13;4.03;;;2.35;;
54235;SDS011;40151;43.606;1.472;2023-09-07T13:42:40;6.05;;;2.65;;
54235;SDS011;40151;43.606;1.472;2023-09-07T13:45:06;4.43;;;2.60;;
54235;SDS011;40151;43.606;1.472;2023-09-07T13:47:31;4.32;;;2.15;;
54235;SDS011;40151;43.606;1.472;2023-09-07T13:49:57;4.10;;;2.30;;
54235;SDS011;40151;43.606;1.472;2023-09-07T13:52:22;5.40;;;2.50;;
54235;SDS011;40151;43.606;1.472;2023-09-07T13:54:48;4.90;;;2.63;;
54235;SDS011;40151;43.606;1.472;2023-09-07T13:57:13;7.13;;;2.60;;
54235;SDS011;40151;43.606;1.472;2023-09-07T13:59:38;4.82;;;2.53;;
54235;SDS011;40151;43.606;1.472;2023-09-07T14:02:04;7.10;;;2.50;;
54235;SDS011;40151;43.606;1.472;2023-09-07T14:04:29;4.78;;;2.30;;
54235;SDS011;40151;43.606;1.472;2023-09-07T14:06:56;4.20;;;2.55;;
54235;SDS011;40151;43.606;1.472;2023-09-07T14:09:21;4.85;;;2.88;;
54235;SDS011;40151;43.606;1.472;2023-09-07T14:11:48;4.55;;;2.55;;
54235;SDS011;40151;43.606;1.472;2023-09-07T14:14:13;5.40;;;2.80;;
54235;SDS011;40151;43.606;1.472;2023-09-07T14:16:40;6.22;;;3.00;;
54235;SDS011;40151;43.606;1.472;2023-09-07T14:19:06;5.68;;;2.60;;
54235;SDS011;40151;43.606;1.472;2023-09-07T14:21:31;5.03;;;2.45;;
54235;SDS011;40151;43.606;1.472;2023-09-07T14:23:57;8.50;;;2.70;;
54235;SDS011;40151;43.606;1.472;2023-09-07T14:26:22;5.60;;;2.70;;
54235;SDS011;40151;43.606;1.472;2023-09-07T14:28:48;5.38;;;2.42;;
54235;SDS011;40151;43.606;1.472;2023-09-07T14:31:13;5.10;;;2.13;;
54235;SDS011;40151;43.606;1.472;2023-09-07T14:33:39;5.32;;;2.42;;
54235;SDS011;40151;43.606;1.472;2023-09-07T14:36:07;6.15;;;2.75;;
54235;SDS011;40151;43.606;1.472;2023-09-07T14:38:34;4.80;;;2.47;;
54235;SDS011;40151;43.606;1.472;2023-09-07T14:41:05;5.00;;;2.60;;
54235;SDS011;40151;43.606;1.472;2023-09-07T14:43:31;4.13;;;2.15;;
54235;SDS011;40151;43.606;1.472;2023-09-07T14:45:57;4.72;;;2.80;;
54235;SDS011;40151;43.606;1.472;2023-09-07T14:48:22;6.30;;;2.55;;